createdAt,value
2019-04-23T00:02:25.093Z,7.40
2019-04-23T00:04:48.136Z,7.15
2019-04-23T00:07:39.564Z,7.25
2019-04-23T00:09:57.168Z,7.25
2019-04-23T00:12:30.123Z,7.17
2019-04-23T00:15:04.518Z,7.30
2019-04-23T00:17:35.835Z,7.20
2019-04-23T00:20:00.735Z,7.90
2019-04-23T00:22:36.667Z,7.58
2019-04-23T00:27:53.317Z,7.65
2019-04-23T00:30:18.856Z,7.58
2019-04-23T00:32:48.000Z,7.72
2019-04-23T00:35:23.665Z,8.00
2019-04-23T00:37:47.442Z,7.80
2019-04-23T00:40:20.274Z,7.78
2019-04-23T00:42:47.911Z,8.30
2019-04-23T00:45:24.600Z,7.55
2019-04-23T00:47:52.741Z,7.80
2019-04-23T00:52:50.204Z,8.60
2019-04-23T00:55:25.311Z,8.78
2019-04-23T00:57:57.830Z,7.72
2019-04-23T01:00:28.167Z,8.00
2019-04-23T01:02:53.361Z,8.53
2019-04-23T01:05:26.231Z,8.50
2019-04-23T01:07:49.993Z,8.23
2019-04-23T01:15:29.964Z,8.73
2019-04-23T01:18:02.276Z,8.65
2019-04-23T01:20:29.268Z,9.40
2019-04-23T01:22:42.080Z,9.20
2019-04-23T01:25:21.244Z,9.48
2019-04-23T01:28:07.701Z,9.88
2019-04-23T01:30:42.554Z,9.40
2019-04-23T01:33:24.724Z,8.95
2019-04-23T01:35:55.144Z,9.45
2019-04-23T01:38:11.240Z,9.50
2019-04-23T01:40:40.637Z,9.43
2019-04-23T01:43:16.716Z,9.43
2019-04-23T01:45:35.773Z,9.55
2019-04-23T01:48:13.263Z,9.68
2019-04-23T01:50:50.122Z,9.50
2019-04-23T01:53:24.716Z,9.30
2019-04-23T01:55:49.779Z,9.50
2019-04-23T01:58:38.775Z,10.10
2019-04-23T02:00:47.813Z,10.05
2019-04-23T02:03:18.154Z,10.00
2019-04-23T02:05:55.812Z,9.60
2019-04-23T02:08:12.870Z,9.70
2019-04-23T02:13:28.205Z,10.20
2019-04-23T02:15:49.444Z,10.15
2019-04-23T02:18:16.322Z,9.85
2019-04-23T02:20:55.187Z,10.18
2019-04-23T02:23:26.247Z,9.93
2019-04-23T02:28:30.341Z,10.20
2019-04-23T02:38:44.346Z,10.48
2019-04-23T02:43:24.450Z,10.43
2019-04-23T02:48:40.579Z,10.20
2019-04-23T02:51:05.385Z,11.28
2019-04-23T02:53:57.901Z,11.03
2019-04-23T02:58:35.155Z,10.75
2019-04-23T03:03:49.710Z,11.45
2019-04-23T03:06:16.705Z,11.33
2019-04-23T03:08:36.428Z,11.20
2019-04-23T03:11:09.788Z,11.18
2019-04-23T03:16:19.814Z,11.33
2019-04-23T03:18:53.612Z,12.05
2019-04-23T03:21:25.452Z,11.90
2019-04-23T03:26:28.688Z,12.10
2019-04-23T03:32:48.433Z,12.03
2019-04-23T03:36:56.464Z,12.80
2019-04-23T03:41:27.881Z,12.45
2019-04-23T03:43:51.949Z,11.60
2019-04-23T03:46:40.153Z,11.55
2019-04-23T03:49:30.497Z,13.60
2019-04-23T03:54:26.338Z,12.10
2019-04-23T03:58:58.235Z,12.28
2019-04-23T04:01:29.190Z,12.90
2019-04-23T04:06:45.510Z,12.30
2019-04-23T04:09:17.454Z,12.15
2019-04-23T04:11:35.675Z,12.30
2019-04-23T04:14:18.088Z,12.68
2019-04-23T04:16:38.996Z,12.60
2019-04-23T04:19:09.029Z,12.50
2019-04-23T04:21:33.790Z,12.30
2019-04-23T04:24:17.280Z,12.23
2019-04-23T04:29:20.985Z,12.82
2019-04-23T04:31:42.252Z,12.90
2019-04-23T04:34:21.426Z,13.28
2019-04-23T04:36:53.530Z,12.88
2019-04-23T04:39:15.135Z,13.20
2019-04-23T04:41:34.549Z,12.50
2019-04-23T04:44:17.610Z,12.78
2019-04-23T04:46:44.208Z,13.00
2019-04-23T04:49:05.632Z,13.35
2019-04-23T04:51:55.483Z,13.10
2019-04-23T04:56:36.084Z,13.60
2019-04-23T04:59:11.955Z,13.08
2019-04-23T05:01:30.231Z,13.40
2019-04-23T05:04:14.126Z,13.08
2019-04-23T05:06:44.705Z,12.40
2019-04-23T05:09:19.549Z,13.40
2019-04-23T05:14:06.754Z,13.10
2019-04-23T05:16:37.070Z,13.00
2019-04-23T05:19:19.977Z,13.30
2019-04-23T05:21:49.627Z,13.28
2019-04-23T05:24:08.266Z,13.50
2019-04-23T05:26:27.547Z,13.22
2019-04-23T05:29:17.155Z,13.67
2019-04-23T05:31:49.769Z,13.50
2019-04-23T05:34:19.700Z,13.53
2019-04-23T05:44:23.846Z,13.40
2019-04-23T05:46:52.195Z,13.55
2019-04-23T05:51:55.553Z,15.13
2019-04-23T05:54:29.910Z,13.60
2019-04-23T05:56:52.006Z,13.62
2019-04-23T05:59:25.878Z,13.78
2019-04-23T06:01:58.849Z,14.07
2019-04-23T06:04:24.626Z,14.38
2019-04-23T06:07:10.791Z,13.18
2019-04-23T06:09:25.138Z,14.00
2019-04-23T06:11:58.691Z,14.10
2019-04-23T06:14:30.772Z,15.03
2019-04-23T06:17:03.771Z,13.60
2019-04-23T06:19:21.439Z,14.03
2019-04-23T06:27:00.744Z,13.60
2019-04-23T06:29:39.384Z,13.32
2019-04-23T06:31:55.349Z,13.13
2019-04-23T06:34:31.083Z,14.43
2019-04-23T06:36:57.272Z,13.85
2019-04-23T06:39:32.403Z,14.47
2019-04-23T06:44:32.159Z,13.40
2019-04-23T06:52:08.395Z,13.90
2019-04-23T06:54:42.399Z,14.03
2019-04-23T06:59:30.668Z,14.10
2019-04-23T07:02:07.989Z,12.70
2019-04-23T07:04:36.156Z,13.70
2019-04-23T07:07:23.894Z,12.65
2019-04-23T07:09:31.161Z,13.05
2019-04-23T07:12:08.518Z,12.50
2019-04-23T07:14:40.533Z,13.10
2019-04-23T07:17:05.350Z,12.58
2019-04-23T07:19:37.078Z,12.13
2019-04-23T07:22:14.663Z,12.70
2019-04-23T07:24:34.530Z,12.60
2019-04-23T07:27:02.387Z,13.60
2019-04-23T07:29:40.586Z,12.33
2019-04-23T07:32:05.595Z,12.03
2019-04-23T07:34:41.490Z,12.30
2019-04-23T07:37:05.157Z,12.18
2019-04-23T07:45:02.467Z,12.00
2019-04-23T07:47:31.348Z,12.60
2019-04-23T07:50:19.233Z,12.23
2019-04-23T07:52:40.731Z,10.63
2019-04-23T07:55:21.525Z,12.20
2019-04-23T07:57:40.062Z,11.78
2019-04-23T08:00:11.345Z,12.25
2019-04-23T08:02:37.976Z,11.60
2019-04-23T08:05:20.278Z,11.48
2019-04-23T08:07:47.278Z,10.80
2019-04-23T08:10:10.166Z,11.83
2019-04-23T08:12:42.483Z,11.68
2019-04-23T08:15:20.167Z,11.50
2019-04-23T08:17:35.805Z,10.98
2019-04-23T08:20:32.256Z,10.80
2019-04-23T08:22:40.886Z,10.48
2019-04-23T08:25:19.334Z,11.80
2019-04-23T08:27:51.502Z,10.68
2019-04-23T08:30:17.731Z,11.18
2019-04-23T08:32:53.916Z,11.00
2019-04-23T08:35:18.564Z,10.90
2019-04-23T08:38:01.494Z,11.10
2019-04-23T08:40:25.245Z,10.58
2019-04-23T08:45:21.718Z,10.30
2019-04-23T08:50:50.859Z,10.03
2019-04-23T08:53:31.259Z,10.20
2019-04-23T08:58:13.323Z,9.85
2019-04-23T09:03:32.856Z,10.18
2019-04-23T09:08:19.095Z,9.63
2019-04-23T09:10:49.545Z,10.03
2019-04-23T09:13:40.165Z,9.95
2019-04-23T09:15:51.238Z,9.55
2019-04-23T09:18:23.100Z,10.00
2019-04-23T09:20:44.539Z,9.40
2019-04-23T09:23:20.880Z,9.18
2019-04-23T09:28:26.076Z,9.00
2019-04-23T09:30:55.449Z,9.67
2019-04-23T09:33:39.453Z,9.33
2019-04-23T09:36:23.842Z,9.20
2019-04-23T09:39:07.586Z,9.60
2019-04-23T09:41:42.086Z,9.50
2019-04-23T09:44:47.266Z,9.68
2019-04-23T09:47:07.075Z,9.73
2019-04-23T09:49:32.709Z,9.60
2019-04-23T09:52:09.610Z,8.80
2019-04-23T09:54:42.150Z,8.35
2019-04-23T09:57:04.588Z,8.70
2019-04-23T09:59:39.113Z,8.17
2019-04-23T10:02:01.011Z,9.10
2019-04-23T10:04:26.621Z,9.05
2019-04-23T10:06:56.434Z,8.63
2019-04-23T10:09:12.246Z,8.80
2019-04-23T10:11:41.018Z,8.30
2019-04-23T10:14:10.570Z,8.20
2019-04-23T10:16:39.094Z,7.70
2019-04-23T10:19:08.008Z,7.33
2019-04-23T10:21:37.455Z,8.18
2019-04-23T10:24:07.501Z,8.33
2019-04-23T10:26:37.719Z,7.40
2019-04-23T10:29:09.726Z,7.30
2019-04-23T10:31:39.883Z,7.80
2019-04-23T10:34:10.349Z,7.80
2019-04-23T10:36:40.615Z,7.10
2019-04-23T10:39:15.518Z,7.40
2019-04-23T10:41:42.503Z,6.90
2019-04-23T10:44:21.472Z,7.12
2019-04-23T10:47:28.151Z,7.70
2019-04-23T10:50:00.243Z,7.40
2019-04-23T10:52:28.072Z,7.10
2019-04-23T10:55:00.425Z,6.67
2019-04-23T10:57:25.308Z,6.50
2019-04-23T10:59:55.853Z,6.70
2019-04-23T11:05:26.668Z,6.70
2019-04-23T11:07:31.253Z,6.53
2019-04-23T11:17:46.050Z,6.47
2019-04-23T11:22:45.457Z,6.33
2019-04-23T11:25:28.117Z,6.60
2019-04-23T11:28:21.384Z,6.20
2019-04-23T11:30:25.861Z,7.03
2019-04-23T11:32:57.078Z,6.90
2019-04-23T11:35:21.555Z,6.50
2019-04-23T11:40:21.291Z,6.90
2019-04-23T11:42:50.068Z,6.65
2019-04-23T11:45:30.583Z,6.90
2019-04-23T11:48:22.529Z,6.70
2019-04-23T11:50:43.146Z,6.30
2019-04-23T11:52:50.091Z,6.37
2019-04-23T11:58:00.782Z,7.60
2019-04-23T12:03:02.855Z,6.30
2019-04-23T12:08:33.505Z,7.22
2019-04-23T12:11:15.230Z,6.60
2019-04-23T12:18:35.398Z,6.80
2019-04-23T12:21:00.146Z,6.03
2019-04-23T12:23:40.875Z,6.30
2019-04-23T12:26:03.664Z,6.62
2019-04-23T12:28:40.219Z,7.00
2019-04-23T12:30:56.795Z,7.08
2019-04-23T12:33:44.862Z,7.10
2019-04-23T12:36:33.903Z,6.53
2019-04-23T12:38:48.961Z,7.37
2019-04-23T12:41:21.121Z,7.30
2019-04-23T12:43:54.589Z,6.78
2019-04-23T12:46:27.707Z,7.53
2019-04-23T12:49:00.557Z,6.40
2019-04-23T12:51:26.694Z,6.50
2019-04-23T12:53:49.136Z,6.17
2019-04-23T12:56:31.823Z,6.90
2019-04-23T12:58:46.537Z,6.55
2019-04-23T13:01:25.556Z,5.30
2019-04-23T13:03:45.565Z,6.30
2019-04-23T13:06:20.640Z,6.03
2019-04-23T13:11:30.072Z,5.90
2019-04-23T13:14:00.478Z,5.63
2019-04-23T13:16:37.661Z,6.03
2019-04-23T13:19:06.391Z,5.58
2019-04-23T13:21:45.066Z,6.20
2019-04-23T13:23:54.717Z,5.42
2019-04-23T13:26:24.744Z,6.23
2019-04-23T13:29:07.797Z,5.80
2019-04-23T13:31:22.376Z,5.78
2019-04-23T13:33:58.461Z,6.22
2019-04-23T13:36:32.889Z,6.28
2019-04-23T13:38:54.997Z,5.78
2019-04-23T13:41:26.078Z,5.50
2019-04-23T13:46:28.756Z,6.10
2019-04-23T13:48:53.651Z,5.67
2019-04-23T13:53:59.340Z,5.97
2019-04-23T13:56:39.136Z,6.22
2019-04-23T13:59:07.348Z,6.10
2019-04-23T14:01:35.463Z,5.50
2019-04-23T14:04:04.560Z,5.95
2019-04-23T14:06:37.288Z,5.62
2019-04-23T14:09:11.591Z,6.00
2019-04-23T14:11:51.827Z,6.60
2019-04-23T14:14:26.666Z,6.10
2019-04-23T14:17:08.373Z,5.65
2019-04-23T14:19:06.727Z,5.95
2019-04-23T14:21:45.901Z,5.60
2019-04-23T14:27:12.016Z,7.35
2019-04-23T14:29:22.947Z,6.10
2019-04-23T14:32:00.876Z,7.80
2019-04-23T14:34:21.128Z,6.60
2019-04-23T14:36:55.630Z,6.20
2019-04-23T14:39:25.097Z,6.58
2019-04-23T14:41:53.928Z,6.40
2019-04-23T14:44:25.780Z,6.90
2019-04-23T14:47:13.299Z,6.50
2019-04-23T14:49:34.081Z,7.03
2019-04-23T14:52:06.147Z,6.70
2019-04-23T14:55:06.186Z,7.30
2019-04-23T14:57:07.932Z,6.78
2019-04-23T14:59:29.291Z,7.17
2019-04-23T15:02:05.380Z,6.60
2019-04-23T15:07:10.939Z,7.50
2019-04-23T15:14:45.993Z,6.97
2019-04-23T15:17:18.687Z,7.67
2019-04-23T15:22:13.501Z,7.80
2019-04-23T15:24:54.606Z,7.28
2019-04-23T15:29:31.838Z,8.10
2019-04-23T15:34:45.406Z,8.73
2019-04-23T15:37:33.824Z,7.60
2019-04-23T15:39:49.545Z,8.53
2019-04-23T15:42:16.615Z,8.23
2019-04-23T15:44:48.802Z,8.33
2019-04-23T15:47:19.196Z,9.83
2019-04-23T15:49:51.539Z,8.15
2019-04-23T15:52:27.308Z,8.90
2019-04-23T15:54:49.683Z,8.90
2019-04-23T15:57:26.874Z,9.23
2019-04-23T15:59:49.725Z,8.83
2019-04-23T16:01:49.872Z,9.25
2019-04-23T16:04:20.111Z,8.60
2019-04-23T16:06:49.802Z,9.00
2019-04-23T16:09:50.866Z,9.40
2019-04-23T16:12:10.892Z,9.50
2019-04-23T16:14:56.997Z,9.58
2019-04-23T16:17:24.025Z,9.30
2019-04-23T16:20:03.400Z,10.50
2019-04-23T16:22:20.415Z,9.90
2019-04-23T16:25:02.739Z,9.73
2019-04-23T16:27:36.565Z,8.75
2019-04-23T16:32:43.162Z,8.95
2019-04-23T16:35:20.076Z,9.80
2019-04-23T16:37:36.193Z,10.70
2019-04-23T16:40:16.555Z,8.75
2019-04-23T16:42:38.130Z,9.20
2019-04-23T16:45:12.548Z,9.70
2019-04-23T16:47:38.903Z,10.20
2019-04-23T16:50:13.032Z,9.38
2019-04-23T16:52:35.904Z,9.68
2019-04-23T16:55:10.839Z,9.70
2019-04-23T17:00:22.911Z,9.73
2019-04-23T17:03:07.266Z,9.38
2019-04-23T17:05:12.526Z,9.63
2019-04-23T17:07:36.269Z,10.20
2019-04-23T17:10:13.085Z,10.00
2019-04-23T17:12:47.432Z,10.43
2019-04-23T17:15:07.597Z,10.23
2019-04-23T17:17:40.847Z,10.30
2019-04-23T17:22:38.795Z,9.25
2019-04-23T17:28:03.698Z,8.97
2019-04-23T17:30:13.138Z,10.23
2019-04-23T17:32:45.227Z,9.48
2019-04-23T17:35:35.136Z,9.70
2019-04-23T17:37:48.647Z,9.18
2019-04-23T17:40:18.141Z,10.27
2019-04-23T17:42:56.884Z,9.60
2019-04-23T17:48:13.254Z,9.60
2019-04-23T17:50:44.289Z,9.45
2019-04-23T17:53:19.943Z,9.80
2019-04-23T17:55:54.647Z,9.53
2019-04-23T17:58:15.571Z,9.98
2019-04-23T18:03:18.362Z,10.00
2019-04-23T18:08:17.849Z,9.90
2019-04-23T18:10:59.444Z,10.00
2019-04-23T18:13:22.953Z,10.67
2019-04-23T18:15:53.559Z,10.60
2019-04-23T18:18:33.560Z,9.80
2019-04-23T18:21:08.462Z,10.10
2019-04-23T18:23:22.856Z,9.90
2019-04-23T18:26:04.081Z,11.07
2019-04-23T18:28:29.655Z,10.50
2019-04-23T18:31:11.372Z,11.43
2019-04-23T18:36:05.309Z,11.50
2019-04-23T18:38:39.779Z,10.60
2019-04-23T18:43:35.605Z,12.30
2019-04-23T18:46:18.538Z,11.28
2019-04-23T18:56:12.488Z,12.63
2019-04-23T19:04:17.199Z,12.85
2019-04-23T19:14:08.326Z,12.70
2019-04-23T19:16:40.448Z,13.50
2019-04-23T19:19:11.729Z,12.10
2019-04-23T19:22:07.003Z,12.37
2019-04-23T19:24:03.355Z,12.90
2019-04-23T19:29:15.989Z,12.20
2019-04-23T19:34:29.772Z,12.13
2019-04-23T19:36:59.160Z,12.03
2019-04-23T19:39:26.826Z,12.07
2019-04-23T19:42:02.248Z,12.13
2019-04-23T19:44:27.926Z,11.73
2019-04-23T19:49:28.817Z,12.82
2019-04-23T19:51:53.439Z,12.33
2019-04-23T19:59:35.938Z,13.30
2019-04-23T20:04:32.239Z,13.13
2019-04-23T20:07:13.959Z,14.20
2019-04-23T20:11:54.963Z,12.83
2019-04-23T20:14:27.569Z,13.90
2019-04-23T20:19:31.634Z,13.30
2019-04-23T20:22:00.347Z,13.50
2019-04-23T20:27:06.300Z,12.88
2019-04-23T20:29:45.413Z,13.80
2019-04-23T20:34:56.604Z,13.65
2019-04-23T20:37:12.615Z,12.90
2019-04-23T20:39:50.574Z,14.60
2019-04-23T20:47:32.305Z,14.60
2019-04-23T20:52:10.371Z,14.50
2019-04-23T20:57:39.194Z,14.15
2019-04-23T21:05:16.277Z,14.45
2019-04-23T21:10:19.925Z,14.68
2019-04-23T21:15:24.215Z,15.03
2019-04-23T21:20:26.605Z,14.78
2019-04-23T21:22:55.801Z,14.90
2019-04-23T21:25:27.875Z,15.50
2019-04-23T21:28:06.354Z,14.53
2019-04-23T21:30:58.603Z,15.00
2019-04-23T21:36:12.645Z,15.32
2019-04-23T21:46:24.221Z,15.75
2019-04-23T21:51:42.217Z,16.05
2019-04-23T21:53:53.164Z,15.00
2019-04-23T21:56:21.013Z,16.10
2019-04-23T21:58:58.037Z,16.35
2019-04-23T22:01:33.288Z,16.77
2019-04-23T22:04:08.726Z,15.43
2019-04-23T22:06:30.610Z,15.48
2019-04-23T22:09:02.807Z,15.40
2019-04-23T22:14:04.134Z,16.07
2019-04-23T22:19:10.553Z,15.60
2019-04-23T22:21:33.289Z,16.10
2019-04-23T22:24:02.386Z,15.50
2019-04-23T22:26:33.546Z,15.95
2019-04-23T22:36:36.999Z,15.88
2019-04-23T22:41:36.147Z,17.35
2019-04-23T22:44:07.115Z,15.75
2019-04-23T22:46:35.394Z,15.85
2019-04-23T22:51:46.246Z,16.40
2019-04-23T22:54:12.315Z,15.65
2019-04-23T22:56:50.672Z,16.50
2019-04-23T22:59:18.654Z,16.10
2019-04-23T23:01:56.945Z,16.42
2019-04-23T23:06:56.791Z,16.00
2019-04-23T23:11:54.303Z,16.82
2019-04-23T23:21:58.160Z,16.45
2019-04-23T23:24:16.897Z,16.32
2019-04-23T23:26:55.993Z,15.95
2019-04-23T23:29:12.313Z,15.50
2019-04-23T23:34:15.657Z,15.80
2019-04-23T23:41:48.991Z,15.80
2019-04-23T23:49:22.145Z,15.90
2019-04-23T23:51:49.578Z,14.75
2019-04-23T23:54:13.605Z,15.33
2019-04-23T23:56:58.424Z,14.95
2019-04-23T23:59:24.670Z,14.87
